Terminal Aerodrome Forecast
Issued by NWS St Louis, MO

Home | Current Version | Previous Version | Text Only | Print | Product List | Glossary On
Versions: 1 2 3 4 5 6 7 8 9 10 11 12 13 14 15 16 17 18
911
FTUS43 KLSX 212328
TAFCOU
TAF
KCOU 212328Z 2200/2224 00000KT P6SM OVC110
     FM220500 03006KT P6SM VCSH OVC080
     FM220800 06005KT 4SM BR VCSH OVC040
     FM221000 05005KT 3SM BR VCSH OVC015
     FM221500 36012G22KT 6SM BR OVC030
     FM221800 35014G22KT P6SM BKN050=

USA.gov is the U.S. government's official web portal to all federal, state and local government web resources and services.